Stone Ridge, NY (12484)

7:19 AM EDT on September 02, 2014 (GMT -0400)
The Vly | Change Station
CLOSE
Current Station
Personal Weather Station
Location: Stone Ridge, NY
Elevation: 880 ft
Nearby Weather Stations

Elev 880 ft 41.89 °N, 74.21 °W | Updated 2 seconds ago

Partly Cloudy
Partly Cloudy
69.2 °F
Feels Like 69.2 °F
N
0.0
Wind Variable Wind from North
Gusts 0.0 mph

Today
High -- | Low -- °F
--% Chance of Precip.
Yesterday
High -- | Low -- °F
Precip. -- in
6:23 AM 7:28 PM
Waxing Crescent, 50% visible
Pressure 29.89 in
Visibility 7.0 miles
Clouds Few 6000 ft
Dew Point 69 °F
Humidity 98%
Rainfall 0.00 in
Snow Depth Not available.
UV 0 out of 12
Pollen 6.80 out of 12
PM2.5 Good
Flu Activity Not available.
METAR KPOU 021053Z AUTO 00000KT 7SM FEW060 21/19 A2990 RMK AO2 SLP120 T02110194 $

More Conditions Fewer Conditions

Pressure 29.89 in
Visibility 7.0 miles
Clouds Few 6000 ft
Dew Point 69 °F
Humidity 98%
Rainfall 0.00 in
Snow Depth Not available.
UV 0 out of 12
Pollen 6.80 out of 12
PM2.5 Good
Flu Activity Not available.
METAR KPOU 021053Z AUTO 00000KT 7SM FEW060 21/19 A2990 RMK AO2 SLP120 T02110194 $

More Conditions Fewer Conditions

10-Day Weather Forecast

Almanac

Astronomy

Sep. 02, 2014 Rise Set
Actual Time 6:23 AM EDT 7:28 PM EDT
Civil Twilight 5:54 AM EDT 7:57 PM EDT
Nautical Twilight 5:20 AM EDT 8:31 PM EDT
Astronomical Twilight 4:44 AM EDT 9:06 PM EDT
Moon 2:11 PM EDT No Moon Set
Length of Visible Light 14h 02m
Length of Day
13h 05m
Tomorrow will be 2m 42s shorter.
Waxing Crescent, 50% of the Moon is Illuminated
Today
Waxing Crescent
Sep 8
Full
Sep 15
Last Quarter
Sep 24
New
Oct 1
First Quarter

Today's Extremes

State Highs State Lows

Community

WunderPhotos

Upload Photos

1,749,621 photos uploaded!

WunderBlogs® & News

By Dr. Jeff Masters
Director of Meteorology, Weather Underground
By Kari Strenfel
Meteorologist, Weather Underground
By Christopher C. Burt
Weather Historian, Weather Underground
September 2, 2014
September 2, 2014
September 2, 2014

Nearby

Air Quality

  Air Quality AQ Index Pollutant
Yesterday Good
PM2.5
Yesterday Good
OZONE
Current Good
PM2.5
Tuesday Moderate
OZONE
Tuesday Moderate
PM2.5

Snow Depth

Station Depth Elevation
No new snow has been reported.

Earthquake Activity

City Distance Mag. Time & Date
No recent earthquake activity has been reported nearby.
Minimum magnitude displayed is 2.5.

Coastal Water Temperatures

Place Temperature
No Stations Reporting

Nearby Weather Stations